createdAt,value
2023-04-05T00:00:39.345Z,5.30
2023-04-05T00:03:07.012Z,5.63
2023-04-05T00:05:34.662Z,5.80
2023-04-05T00:08:03.366Z,5.63
2023-04-05T00:10:31.638Z,5.30
2023-04-05T00:12:59.493Z,5.30
2023-04-05T00:15:28.366Z,6.03
2023-04-05T00:17:56.662Z,5.13
2023-04-05T00:20:23.889Z,5.30
2023-04-05T00:22:51.040Z,5.73
2023-04-05T00:25:18.695Z,6.10
2023-04-05T00:27:46.051Z,5.37
2023-04-05T00:30:15.034Z,5.60
2023-04-05T00:32:42.603Z,6.20
2023-04-05T00:35:09.910Z,5.53
2023-04-05T00:37:37.011Z,5.63
2023-04-05T00:40:05.080Z,5.47
2023-04-05T00:42:32.213Z,5.80
2023-04-05T00:44:59.299Z,5.27
2023-04-05T00:47:26.520Z,5.73
2023-04-05T00:49:53.688Z,5.67
2023-04-05T00:52:23.427Z,6.33
2023-04-05T00:54:51.855Z,5.30
2023-04-05T00:57:19.039Z,5.40
2023-04-05T00:59:46.220Z,5.83
2023-04-05T01:02:49.826Z,5.33
2023-04-05T01:05:34.633Z,5.50
2023-04-05T01:08:13.301Z,5.77
2023-04-05T01:10:48.057Z,5.93
2023-04-05T01:13:17.617Z,5.70
2023-04-05T01:15:45.114Z,5.63
2023-04-05T01:18:14.024Z,6.00
2023-04-05T01:20:55.113Z,5.70
2023-04-05T01:23:34.307Z,5.10
2023-04-05T01:26:46.839Z,6.87
2023-04-05T01:29:48.237Z,6.20
2023-04-05T01:32:17.604Z,5.70
2023-04-05T01:35:09.776Z,5.57
2023-04-05T01:37:38.942Z,5.93
2023-04-05T01:40:08.628Z,5.53
2023-04-05T01:42:36.294Z,5.60
2023-04-05T01:45:03.651Z,5.83
2023-04-05T01:47:30.964Z,6.33
2023-04-05T01:49:58.046Z,5.87
2023-04-05T01:52:25.136Z,5.60
2023-04-05T01:54:52.176Z,5.57
2023-04-05T01:57:19.302Z,5.63
2023-04-05T01:59:46.353Z,5.57
2023-04-05T02:02:13.467Z,5.90
2023-04-05T02:04:40.717Z,5.40
2023-04-05T02:07:07.993Z,6.37
2023-04-05T02:09:35.223Z,5.70
2023-04-05T02:12:02.474Z,5.70
2023-04-05T02:14:29.751Z,5.40
2023-04-05T02:16:56.856Z,6.07
2023-04-05T02:19:24.348Z,5.70
2023-04-05T02:21:53.762Z,6.37
2023-04-05T02:24:21.813Z,5.80
2023-04-05T02:26:48.992Z,6.37
2023-04-05T02:29:16.140Z,5.97
2023-04-05T02:31:43.248Z,6.43
2023-04-05T02:34:11.677Z,6.93
2023-04-05T02:36:38.790Z,5.70
2023-04-05T02:39:05.864Z,5.73
2023-04-05T02:41:33.182Z,5.67
2023-04-05T02:44:00.472Z,5.90
2023-04-05T02:46:27.571Z,6.23
2023-04-05T02:48:54.650Z,6.20
2023-04-05T02:51:21.680Z,5.97
2023-04-05T02:53:48.836Z,5.60
2023-04-05T02:56:15.887Z,5.57
2023-04-05T02:58:43.267Z,6.43
2023-04-05T03:01:10.471Z,6.47
2023-04-05T03:03:38.090Z,5.63
2023-04-05T03:06:13.416Z,5.80
2023-04-05T03:08:46.508Z,6.32
2023-04-05T03:11:13.805Z,6.10
2023-04-05T03:13:41.616Z,5.93
2023-04-05T03:16:08.740Z,6.00
2023-04-05T03:18:35.861Z,6.20
2023-04-05T03:21:04.609Z,5.90
2023-04-05T03:23:33.508Z,6.00
2023-04-05T03:26:01.974Z,5.23
2023-04-05T03:28:32.479Z,6.23
2023-04-05T03:30:59.759Z,5.87
2023-04-05T03:33:26.954Z,6.33
2023-04-05T03:35:54.133Z,5.47
2023-04-05T03:38:21.520Z,6.30
2023-04-05T03:40:48.662Z,6.00
2023-04-05T03:43:15.745Z,5.07
2023-04-05T03:45:43.349Z,6.23
2023-04-05T03:48:11.000Z,6.00
2023-04-05T03:50:38.135Z,6.10
2023-04-05T03:53:05.311Z,6.30
2023-04-05T03:55:32.512Z,5.97
2023-04-05T03:57:59.631Z,5.80
2023-04-05T04:00:26.682Z,6.00
2023-04-05T04:02:54.021Z,5.90
2023-04-05T04:05:21.870Z,5.67
2023-04-05T04:07:49.124Z,6.50
2023-04-05T04:10:17.842Z,5.53
2023-04-05T04:12:45.848Z,5.53
2023-04-05T04:15:13.178Z,5.80
2023-04-05T04:17:40.458Z,5.27
2023-04-05T04:20:11.072Z,5.97
2023-04-05T04:22:40.397Z,5.83
2023-04-05T04:25:12.754Z,5.77
2023-04-05T04:27:42.721Z,6.03
2023-04-05T04:30:13.262Z,6.13
2023-04-05T04:32:54.719Z,5.90
2023-04-05T04:35:27.960Z,5.47
2023-04-05T04:38:00.617Z,5.90
2023-04-05T04:40:39.164Z,5.60
2023-04-05T04:43:17.472Z,6.00
2023-04-05T04:45:50.040Z,6.77
2023-04-05T04:48:17.669Z,5.97
2023-04-05T04:50:46.577Z,6.10
2023-04-05T04:53:13.773Z,6.13
2023-04-05T04:55:43.659Z,5.37
2023-04-05T04:58:12.935Z,5.73
2023-04-05T05:00:44.787Z,5.50
2023-04-05T05:03:12.851Z,5.40
2023-04-05T05:05:50.260Z,5.60
2023-04-05T05:08:20.543Z,5.30
2023-04-05T05:10:54.934Z,5.40
2023-04-05T05:13:22.119Z,5.70
2023-04-05T05:15:49.525Z,6.20
2023-04-05T05:18:16.848Z,5.83
2023-04-05T05:20:44.004Z,6.40
2023-04-05T05:23:11.433Z,6.20
2023-04-05T05:25:38.900Z,5.47
2023-04-05T05:28:06.507Z,5.67
2023-04-05T05:30:33.692Z,4.93
2023-04-05T05:33:01.368Z,5.00
2023-04-05T05:35:28.852Z,5.40
2023-04-05T05:37:56.023Z,4.97
2023-04-05T05:40:23.096Z,5.33
2023-04-05T05:42:50.205Z,5.90
2023-04-05T05:45:17.386Z,5.33
2023-04-05T05:47:44.522Z,4.73
2023-04-05T05:50:11.896Z,5.50
2023-04-05T05:52:39.006Z,4.60
2023-04-05T05:55:07.304Z,5.67
2023-04-05T05:57:34.454Z,5.00
2023-04-05T06:00:01.565Z,5.50
2023-04-05T06:02:28.812Z,4.83
2023-04-05T06:04:56.131Z,5.03
2023-04-05T06:07:23.360Z,4.37
2023-04-05T06:09:50.413Z,4.13
2023-04-05T06:12:17.570Z,4.77
2023-04-05T06:14:44.700Z,4.70
2023-04-05T06:17:14.668Z,5.30
2023-04-05T06:19:41.734Z,4.97
2023-04-05T06:22:08.869Z,5.20
2023-04-05T06:24:36.048Z,4.90
2023-04-05T06:27:03.182Z,5.20
2023-04-05T06:29:31.307Z,4.67
2023-04-05T06:31:58.612Z,5.13
2023-04-05T06:34:25.908Z,4.97
2023-04-05T06:36:53.033Z,4.27
2023-04-05T06:39:20.151Z,4.90
2023-04-05T06:41:47.225Z,4.53
2023-04-05T06:44:14.274Z,4.43
2023-04-05T06:46:41.341Z,4.73
2023-04-05T06:49:08.467Z,4.50
2023-04-05T06:51:35.619Z,4.20
2023-04-05T06:54:02.737Z,4.50
2023-04-05T06:56:30.073Z,4.50
2023-04-05T06:58:59.523Z,4.23
2023-04-05T07:01:27.339Z,4.60
2023-04-05T07:03:54.591Z,5.03
2023-04-05T07:06:23.938Z,5.10
2023-04-05T07:08:51.811Z,4.40
2023-04-05T07:11:18.887Z,4.47
2023-04-05T07:13:46.113Z,4.20
2023-04-05T07:16:13.287Z,4.50
2023-04-05T07:18:40.691Z,4.07
2023-04-05T07:21:07.796Z,4.80
2023-04-05T07:23:34.863Z,4.60
2023-04-05T07:26:04.935Z,4.70
2023-04-05T07:28:33.881Z,4.50
2023-04-05T07:31:05.713Z,4.57
2023-04-05T07:33:33.004Z,4.60
2023-04-05T07:36:00.508Z,4.00
2023-04-05T07:38:29.277Z,4.33
2023-04-05T07:40:56.529Z,4.70
2023-04-05T07:43:25.570Z,4.13
2023-04-05T07:45:53.607Z,4.10
2023-04-05T07:48:21.151Z,4.80
2023-04-05T07:50:48.805Z,4.00
2023-04-05T07:53:16.063Z,4.28
2023-04-05T07:55:43.524Z,4.20
2023-04-05T07:58:11.158Z,3.95
2023-04-05T08:00:38.972Z,4.72
2023-04-05T08:03:06.625Z,4.10
2023-04-05T08:05:33.868Z,3.72
2023-04-05T08:08:00.992Z,4.03
2023-04-05T08:10:28.057Z,3.25
2023-04-05T08:12:55.187Z,4.45
2023-04-05T08:15:22.317Z,4.07
2023-04-05T08:17:49.435Z,4.32
2023-04-05T08:20:16.715Z,3.47
2023-04-05T08:22:43.832Z,4.15
2023-04-05T08:25:10.964Z,3.90
2023-04-05T08:27:38.149Z,3.92
2023-04-05T08:30:06.263Z,3.95
2023-04-05T08:32:34.884Z,3.97
2023-04-05T08:35:02.069Z,4.20
2023-04-05T08:37:29.221Z,4.00
2023-04-05T08:39:59.095Z,4.10
2023-04-05T08:42:35.983Z,3.85
2023-04-05T08:45:05.097Z,4.13
2023-04-05T08:47:36.100Z,3.90
2023-04-05T08:50:04.817Z,5.30
2023-04-05T08:52:33.677Z,4.57
2023-04-05T08:55:00.961Z,4.15
2023-04-05T08:57:31.174Z,3.45
2023-04-05T09:00:01.406Z,3.70
2023-04-05T09:02:29.745Z,3.45
2023-04-05T09:04:57.797Z,3.90
2023-04-05T09:07:29.715Z,3.45
2023-04-05T09:10:00.853Z,4.40
2023-04-05T09:12:29.569Z,3.13
2023-04-05T09:14:57.088Z,3.30
2023-04-05T09:17:24.595Z,3.65
2023-04-05T09:19:52.961Z,3.83
2023-04-05T09:22:22.790Z,3.72
2023-04-05T09:24:49.874Z,3.85
2023-04-05T09:27:20.184Z,4.43
2023-04-05T09:29:49.202Z,3.95
2023-04-05T09:32:19.318Z,3.70
2023-04-05T09:34:47.414Z,3.88
2023-04-05T09:37:22.360Z,3.85
2023-04-05T09:39:51.859Z,3.42
2023-04-05T09:42:26.147Z,3.78
2023-04-05T09:44:58.283Z,3.75
2023-04-05T09:47:31.366Z,4.03
2023-04-05T09:50:00.077Z,3.25
2023-04-05T09:52:32.278Z,3.42
2023-04-05T09:55:02.987Z,4.07
2023-04-05T09:57:38.472Z,3.35
2023-04-05T10:00:17.062Z,3.40
2023-04-05T10:02:44.302Z,2.85
2023-04-05T10:05:14.037Z,2.83
2023-04-05T10:07:42.357Z,2.92
2023-04-05T10:10:12.702Z,3.10
2023-04-05T10:12:41.795Z,2.30
2023-04-05T10:15:11.336Z,2.78
2023-04-05T10:17:51.694Z,2.55
2023-04-05T10:20:28.078Z,2.80
2023-04-05T10:23:10.191Z,2.60
2023-04-05T10:25:53.226Z,2.72
2023-04-05T10:28:37.634Z,2.15
2023-04-05T10:31:38.220Z,2.30
2023-04-05T10:34:13.787Z,2.50
2023-04-05T10:36:54.100Z,2.65
2023-04-05T10:39:30.425Z,2.50
2023-04-05T10:42:13.732Z,2.58
2023-04-05T10:44:43.574Z,2.35
2023-04-05T10:47:17.371Z,2.60
2023-04-05T10:49:49.303Z,2.80
2023-04-05T10:52:18.181Z,2.53
2023-04-05T10:54:45.532Z,2.17
2023-04-05T10:57:13.571Z,2.38
2023-04-05T10:59:46.658Z,2.55
2023-04-05T11:02:15.069Z,2.53
2023-04-05T11:04:42.842Z,2.35
2023-04-05T11:07:18.791Z,2.30
2023-04-05T11:12:20.046Z,2.95
2023-04-05T11:14:47.195Z,2.30
2023-04-05T11:17:28.531Z,2.20
2023-04-05T11:20:06.183Z,2.63
2023-04-05T11:22:33.446Z,2.65
2023-04-05T11:25:03.336Z,2.28
2023-04-05T11:27:32.638Z,2.88
2023-04-05T11:30:01.880Z,2.63
2023-04-05T11:32:47.307Z,2.40
2023-04-05T11:35:23.390Z,2.40
2023-04-05T11:38:03.204Z,2.47
2023-04-05T11:40:40.426Z,2.88
2023-04-05T11:43:12.452Z,2.70
2023-04-05T11:45:44.026Z,2.70
2023-04-05T11:48:13.660Z,2.60
2023-04-05T11:50:42.144Z,2.50
2023-04-05T11:53:17.828Z,2.92
2023-04-05T11:55:48.223Z,2.70
2023-04-05T11:58:18.465Z,2.67
2023-04-05T12:00:46.958Z,2.65
2023-04-05T12:03:15.780Z,2.97
2023-04-05T12:05:47.782Z,2.58
2023-04-05T12:08:16.111Z,3.10
2023-04-05T12:10:43.267Z,2.75
2023-04-05T12:13:10.793Z,2.78
2023-04-05T12:15:40.730Z,2.47
2023-04-05T12:18:14.789Z,2.95
2023-04-05T12:20:43.437Z,2.30
2023-04-05T12:23:13.412Z,2.50
2023-04-05T12:25:42.850Z,2.40
2023-04-05T12:28:11.630Z,2.33
2023-04-05T12:30:53.377Z,2.78
2023-04-05T12:33:32.928Z,2.45
2023-04-05T12:36:06.162Z,2.72
2023-04-05T12:38:33.506Z,2.40
2023-04-05T12:41:03.446Z,2.10
2023-04-05T12:43:43.489Z,2.85
2023-04-05T12:46:16.550Z,2.47
2023-04-05T12:48:43.862Z,2.60
2023-04-05T12:51:17.526Z,2.03
2023-04-05T12:53:50.899Z,2.30
2023-04-05T12:56:18.599Z,2.28
2023-04-05T12:58:52.216Z,2.55
2023-04-05T13:01:19.428Z,2.40
2023-04-05T13:03:49.628Z,2.47
2023-04-05T13:06:17.297Z,2.83
2023-04-05T13:08:44.336Z,2.47
2023-04-05T13:11:11.706Z,2.58
2023-04-05T13:13:38.817Z,2.20
2023-04-05T13:16:06.371Z,2.33
2023-04-05T13:18:36.466Z,2.20
2023-04-05T13:21:08.523Z,2.33
2023-04-05T13:23:36.918Z,2.30
2023-04-05T13:26:07.318Z,2.63
2023-04-05T13:28:35.378Z,2.55
2023-04-05T13:31:06.373Z,2.28
2023-04-05T13:33:33.815Z,1.98
2023-04-05T13:36:03.725Z,2.85
2023-04-05T13:38:31.019Z,2.35
2023-04-05T13:40:58.163Z,2.88
2023-04-05T13:43:27.951Z,2.38
2023-04-05T13:45:56.245Z,2.03
2023-04-05T13:48:23.296Z,2.53
2023-04-05T13:50:50.426Z,2.60
2023-04-05T13:53:17.540Z,2.33
2023-04-05T13:55:44.646Z,2.30
2023-04-05T13:58:11.724Z,2.38
2023-04-05T14:00:40.278Z,2.50
2023-04-05T14:03:07.600Z,2.17
2023-04-05T14:05:34.887Z,2.20
2023-04-05T14:08:02.083Z,2.80
2023-04-05T14:10:31.220Z,2.47
2023-04-05T14:12:58.309Z,2.60
2023-04-05T14:15:25.814Z,2.33
2023-04-05T14:17:53.134Z,2.30
2023-04-05T14:20:20.465Z,2.20
2023-04-05T14:22:47.681Z,2.40
2023-04-05T14:25:14.871Z,2.13
2023-04-05T14:27:42.671Z,2.50
2023-04-05T14:30:11.426Z,1.83
2023-04-05T14:32:38.830Z,1.90
2023-04-05T14:35:06.693Z,2.40
2023-04-05T14:37:33.802Z,2.17
2023-04-05T14:40:00.878Z,2.40
2023-04-05T14:42:45.093Z,2.33
2023-04-05T14:45:16.473Z,2.93
2023-04-05T14:47:43.596Z,2.60
2023-04-05T14:50:11.318Z,2.97
2023-04-05T14:52:39.966Z,2.25
2023-04-05T14:55:07.780Z,2.28
2023-04-05T14:57:35.023Z,2.78
2023-04-05T15:00:02.196Z,2.65
2023-04-05T15:02:29.562Z,2.45
2023-04-05T15:05:00.407Z,2.63
2023-04-05T15:07:28.818Z,3.05
2023-04-05T15:09:56.082Z,3.15
2023-04-05T15:12:23.661Z,2.40
2023-04-05T15:14:51.102Z,2.83
2023-04-05T15:17:18.494Z,2.28
2023-04-05T15:19:45.639Z,2.53
2023-04-05T15:22:13.468Z,2.42
2023-04-05T15:24:43.880Z,2.30
2023-04-05T15:27:11.560Z,2.25
2023-04-05T15:29:38.731Z,2.30
2023-04-05T15:32:06.296Z,2.50
2023-04-05T15:34:33.428Z,2.65
2023-04-05T15:37:00.535Z,2.10
2023-04-05T15:39:27.672Z,2.13
2023-04-05T15:41:57.751Z,2.38
2023-04-05T15:44:24.920Z,2.10
2023-04-05T15:46:52.036Z,2.45
2023-04-05T15:49:19.196Z,2.70
2023-04-05T15:51:46.423Z,2.08
2023-04-05T15:54:18.573Z,2.30
2023-04-05T15:56:45.875Z,2.50
2023-04-05T15:59:14.325Z,1.90
2023-04-05T16:01:41.620Z,2.53
2023-04-05T16:04:09.219Z,2.50
2023-04-05T16:06:36.329Z,2.47
2023-04-05T16:09:03.790Z,2.33
2023-04-05T16:11:31.528Z,2.17
2023-04-05T16:13:58.738Z,2.60
2023-04-05T16:16:35.308Z,2.83
2023-04-05T16:19:10.418Z,2.72
2023-04-05T16:21:37.548Z,2.72
2023-04-05T16:24:05.610Z,2.45
2023-04-05T16:26:33.101Z,2.35
2023-04-05T16:29:00.890Z,2.47
2023-04-05T16:31:28.578Z,2.42
2023-04-05T16:33:55.778Z,2.53
2023-04-05T16:36:22.894Z,2.65
2023-04-05T16:38:49.988Z,2.42
2023-04-05T16:41:17.110Z,2.55
2023-04-05T16:43:44.259Z,2.85
2023-04-05T16:46:11.609Z,2.97
2023-04-05T16:48:38.872Z,2.95
2023-04-05T16:51:07.303Z,2.75
2023-04-05T16:53:34.482Z,2.90
2023-04-05T16:56:01.791Z,2.63
2023-04-05T16:58:29.708Z,2.80
2023-04-05T17:00:58.941Z,2.97
2023-04-05T17:03:26.536Z,2.53
2023-04-05T17:05:53.809Z,3.08
2023-04-05T17:08:21.104Z,3.13
2023-04-05T17:10:48.244Z,3.58
2023-04-05T17:13:15.506Z,3.00
2023-04-05T17:15:42.806Z,3.50
2023-04-05T17:18:11.914Z,3.40
2023-04-05T17:20:39.166Z,2.75
2023-04-05T17:23:06.315Z,3.25
2023-04-05T17:25:33.401Z,3.20
2023-04-05T17:28:00.512Z,3.13
2023-04-05T17:30:27.810Z,3.90
2023-04-05T17:32:56.238Z,3.67
2023-04-05T17:35:23.463Z,3.97
2023-04-05T17:37:50.688Z,4.32
2023-04-05T17:40:18.659Z,4.32
2023-04-05T17:42:46.300Z,3.83
2023-04-05T17:45:13.434Z,3.40
2023-04-05T17:47:40.674Z,3.28
2023-04-05T17:50:08.899Z,4.10
2023-04-05T17:52:36.256Z,3.30
2023-04-05T17:55:03.663Z,3.90
2023-04-05T17:57:31.152Z,3.95
2023-04-05T17:59:59.350Z,4.18
2023-04-05T18:02:28.340Z,3.70
2023-04-05T18:04:55.657Z,4.28
2023-04-05T18:07:23.465Z,3.92
2023-04-05T18:09:50.733Z,4.50
2023-04-05T18:12:18.261Z,3.55
2023-04-05T18:14:45.611Z,3.40
2023-04-05T18:17:12.822Z,3.28
2023-04-05T18:19:40.050Z,3.42
2023-04-05T18:22:07.517Z,3.40
2023-04-05T18:24:35.131Z,3.30
2023-04-05T18:27:02.750Z,3.55
2023-04-05T18:29:30.905Z,3.95
2023-04-05T18:31:58.209Z,3.78
2023-04-05T18:34:25.763Z,3.45
2023-04-05T18:36:52.937Z,3.65
2023-04-05T18:39:20.299Z,3.40
2023-04-05T18:41:47.548Z,3.47
2023-04-05T18:44:14.747Z,3.90
2023-04-05T18:46:42.300Z,3.70
2023-04-05T18:49:09.668Z,4.15
2023-04-05T18:51:37.753Z,3.38
2023-04-05T18:54:05.386Z,3.83
2023-04-05T18:56:32.728Z,3.40
2023-04-05T18:58:59.964Z,3.45
2023-04-05T19:01:27.515Z,3.58
2023-04-05T19:03:54.725Z,4.00
2023-04-05T19:06:22.187Z,3.90
2023-04-05T19:08:49.352Z,3.65
2023-04-05T19:11:18.783Z,3.90
2023-04-05T19:13:47.352Z,3.70
2023-04-05T19:16:17.413Z,4.15
2023-04-05T19:18:45.426Z,3.75
2023-04-05T19:21:12.900Z,5.00
2023-04-05T19:23:40.327Z,3.80
2023-04-05T19:26:08.129Z,4.15
2023-04-05T19:28:35.761Z,4.22
2023-04-05T19:31:03.813Z,4.70
2023-04-05T19:33:34.064Z,4.85
2023-04-05T19:36:02.398Z,4.57
2023-04-05T19:38:30.101Z,4.68
2023-04-05T19:40:58.343Z,4.35
2023-04-05T19:43:31.954Z,3.78
2023-04-05T19:46:01.193Z,3.95
2023-04-05T19:48:40.194Z,4.80
2023-04-05T19:51:11.702Z,4.90
2023-04-05T19:53:54.337Z,4.63
2023-04-05T19:56:28.427Z,4.47
2023-04-05T19:59:10.138Z,5.60
2023-04-05T20:01:40.556Z,5.75
2023-04-05T20:04:20.508Z,5.32
2023-04-05T20:06:53.272Z,6.10
2023-04-05T20:09:25.904Z,6.75
2023-04-05T20:11:59.666Z,6.32
2023-04-05T20:14:46.416Z,5.93
2023-04-05T20:17:16.013Z,5.80
2023-04-05T20:19:58.333Z,6.18
2023-04-05T20:22:27.227Z,4.93
2023-04-05T20:24:54.505Z,6.10
2023-04-05T20:27:21.623Z,6.50
2023-04-05T20:29:48.892Z,5.43
2023-04-05T20:32:17.772Z,5.05
2023-04-05T20:34:46.121Z,5.35
2023-04-05T20:37:13.600Z,4.88
2023-04-05T20:39:40.783Z,5.22
2023-04-05T20:42:09.891Z,5.07
2023-04-05T20:44:37.269Z,5.55
2023-04-05T20:47:04.476Z,4.80
2023-04-05T20:49:31.655Z,5.57
2023-04-05T20:51:59.791Z,5.47
2023-04-05T20:54:26.999Z,5.78
2023-04-05T20:56:54.068Z,5.10
2023-04-05T20:59:21.506Z,5.03
2023-04-05T21:01:49.276Z,5.13
2023-04-05T21:04:16.804Z,4.90
2023-04-05T21:06:44.326Z,5.50
2023-04-05T21:09:11.543Z,5.03
2023-04-05T21:11:38.717Z,6.13
2023-04-05T21:14:06.012Z,5.40
2023-04-05T21:16:33.160Z,4.77
2023-04-05T21:19:00.446Z,5.90
2023-04-05T21:21:27.894Z,5.63
2023-04-05T21:23:55.007Z,4.97
2023-04-05T21:26:22.083Z,4.80
2023-04-05T21:28:49.198Z,4.70
2023-04-05T21:31:16.608Z,4.97
2023-04-05T21:33:43.921Z,4.33
2023-04-05T21:36:11.032Z,4.80
2023-04-05T21:38:38.198Z,4.77
2023-04-05T21:41:05.443Z,4.00
2023-04-05T21:43:32.562Z,4.43
2023-04-05T21:45:59.688Z,4.27
2023-04-05T21:48:28.085Z,4.53
2023-04-05T21:50:55.948Z,4.80
2023-04-05T21:53:25.649Z,4.23
2023-04-05T21:55:52.946Z,5.50
2023-04-05T21:58:20.160Z,5.43
2023-04-05T22:00:47.358Z,5.73
2023-04-05T22:03:14.548Z,4.97
2023-04-05T22:05:41.825Z,4.87
2023-04-05T22:08:09.838Z,4.77
2023-04-05T22:10:37.804Z,5.27
2023-04-05T22:13:04.910Z,5.30
2023-04-05T22:15:32.044Z,4.60
2023-04-05T22:17:59.307Z,4.57
2023-04-05T22:20:26.632Z,5.70
2023-04-05T22:22:54.882Z,5.70
2023-04-05T22:25:22.010Z,5.23
2023-04-05T22:27:49.141Z,5.20
2023-04-05T22:30:16.418Z,4.70
2023-04-05T22:32:43.751Z,5.00
2023-04-05T22:35:11.232Z,4.83
2023-04-05T22:37:40.580Z,5.07
2023-04-05T22:40:09.387Z,4.60
2023-04-05T22:42:38.105Z,5.03
2023-04-05T22:45:07.439Z,4.33
2023-04-05T22:47:34.887Z,5.23
2023-04-05T22:50:02.068Z,5.53
2023-04-05T22:52:29.217Z,4.60
2023-04-05T22:54:56.378Z,4.90
2023-04-05T22:57:23.467Z,5.07
2023-04-05T22:59:50.582Z,5.00
2023-04-05T23:02:17.630Z,5.37
2023-04-05T23:04:44.765Z,4.83
2023-04-05T23:07:11.907Z,5.20
2023-04-05T23:09:39.100Z,5.40
2023-04-05T23:12:06.940Z,4.77
2023-04-05T23:14:34.187Z,5.23
2023-04-05T23:17:01.648Z,5.80
2023-04-05T23:19:29.116Z,5.67
2023-04-05T23:21:56.208Z,5.67
2023-04-05T23:24:23.532Z,5.50
2023-04-05T23:26:50.893Z,5.80
2023-04-05T23:29:21.140Z,6.03
2023-04-05T23:31:48.412Z,5.43
2023-04-05T23:34:15.932Z,5.80
2023-04-05T23:36:42.953Z,5.07
2023-04-05T23:39:10.218Z,5.90
2023-04-05T23:41:37.767Z,5.67
2023-04-05T23:44:05.210Z,5.97
2023-04-05T23:46:33.355Z,6.03
2023-04-05T23:49:00.559Z,5.63
2023-04-05T23:51:27.743Z,6.03
2023-04-05T23:53:55.564Z,5.33
2023-04-05T23:56:22.649Z,6.53
2023-04-05T23:58:49.811Z,5.67
